Time;durP1;ratioP1;P1;durP2;ratioP2;P2;SDS_P1;SDS_P2;PMS_P1;PMS_P2;Temp;Humidity;BMP_temperature;BMP_pressure;BME280_temperature;BME280_humidity;BME280_pressure;Samples;Min_cycle;Max_cycle;Signal;HPM_P1;HPM_P2
2022/04/11 00:02:16;;;;;;;3.80;1.77;;;3.20;99.90;;;;;;4966823;28;20035;-87
2022/04/11 00:05:03;;;;;;;5.30;2.17;;;3.10;99.90;;;;;;4960756;28;20036;-87
2022/04/11 00:07:39;;;;;;;4.30;1.70;;;3.10;99.90;;;;;;4959083;28;20046;-87
2022/04/11 00:10:20;;;;;;;5.17;2.27;;;3.00;99.90;;;;;;4963608;28;20556;-87
2022/04/11 00:12:54;;;;;;;5.53;1.97;;;3.00;99.90;;;;;;4957137;28;20023;-87
2022/04/11 00:15:24;;;;;;;6.23;2.20;;;3.00;99.90;;;;;;4957034;28;20138;-87
2022/04/11 00:18:03;;;;;;;4.77;2.10;;;2.90;99.90;;;;;;4963233;28;20035;-87
2022/04/11 00:20:36;;;;;;;4.83;2.03;;;2.80;99.90;;;;;;4959220;28;20023;-86
2022/04/11 00:23:15;;;;;;;6.00;2.13;;;2.80;99.90;;;;;;4957414;28;20047;-87
2022/04/11 00:25:56;;;;;;;3.07;1.53;;;2.90;99.90;;;;;;4957230;28;20063;-87
2022/04/11 00:28:25;;;;;;;4.33;1.60;;;2.80;99.90;;;;;;4954465;28;20027;-85
2022/04/11 00:30:51;;;;;;;6.13;2.03;;;2.80;99.90;;;;;;4953309;28;20023;-85
2022/04/11 00:33:17;;;;;;;2.70;1.63;;;2.90;99.90;;;;;;4959458;28;20020;-85
2022/04/11 00:35:55;;;;;;;5.53;2.40;;;2.70;99.90;;;;;;4956696;28;20085;-85
2022/04/11 00:38:36;;;;;;;3.93;1.97;;;2.80;99.90;;;;;;4957462;28;20107;-86
2022/04/11 00:41:08;;;;;;;5.63;1.70;;;2.80;99.90;;;;;;4955074;28;20023;-85
2022/04/11 00:43:43;;;;;;;2.38;1.77;;;2.70;99.90;;;;;;4957714;28;20398;-85
2022/04/11 00:46:17;;;;;;;3.43;1.53;;;2.70;99.90;;;;;;4957649;28;20041;-86
2022/04/11 00:48:45;;;;;;;4.70;1.97;;;2.70;99.90;;;;;;4960408;28;20023;-86
2022/04/11 00:51:22;;;;;;;7.37;2.00;;;2.70;99.90;;;;;;4966635;28;20134;-85
2022/04/11 00:53:52;;;;;;;4.37;1.70;;;2.70;99.90;;;;;;4963447;28;20033;-86
2022/04/11 00:56:28;;;;;;;5.93;2.33;;;2.70;99.90;;;;;;4960597;28;20042;-86
2022/04/11 00:59:01;;;;;;;3.43;1.73;;;2.80;99.90;;;;;;4960539;28;20034;-86
2022/04/11 01:01:50;;;;;;;3.33;1.67;;;2.60;99.90;;;;;;4961408;28;20031;-87
2022/04/11 01:04:26;;;;;;;3.63;1.87;;;2.60;99.90;;;;;;4976897;28;20031;-86
2022/04/11 01:06:59;;;;;;;5.23;2.03;;;2.50;99.90;;;;;;4957891;28;20034;-87
2022/04/11 01:09:34;;;;;;;4.17;1.87;;;2.60;99.90;;;;;;4961188;28;20043;-86
2022/04/11 01:12:02;;;;;;;3.17;1.70;;;2.60;99.90;;;;;;4960725;28;20039;-86
2022/04/11 01:14:33;;;;;;;4.90;1.90;;;2.70;99.90;;;;;;4957785;28;20023;-86
2022/04/11 01:17:05;;;;;;;4.70;1.73;;;2.70;99.90;;;;;;4959621;28;20117;-86
2022/04/11 01:19:34;;;;;;;6.38;2.05;;;2.50;99.90;;;;;;4957664;28;20043;-87
2022/04/11 01:22:06;;;;;;;4.37;1.70;;;2.60;99.90;;;;;;4961626;28;20033;-86
2022/04/11 01:24:41;;;;;;;5.95;1.90;;;2.50;99.90;;;;;;4957049;28;20078;-86
2022/04/11 01:27:10;;;;;;;5.63;2.17;;;2.50;99.90;;;;;;4957484;28;20118;-86
2022/04/11 01:29:39;;;;;;;7.00;2.57;;;2.40;99.90;;;;;;4961669;28;20015;-86
2022/04/11 01:32:15;;;;;;;5.30;2.30;;;2.50;99.90;;;;;;4954837;28;20019;-86
2022/04/11 01:34:54;;;;;;;5.27;2.10;;;2.50;99.90;;;;;;4958628;28;20035;-86
2022/04/11 01:37:25;;;;;;;3.83;1.97;;;2.50;99.90;;;;;;4963137;28;20084;-86
2022/04/11 01:40:08;;;;;;;5.33;2.23;;;2.50;99.90;;;;;;4967493;28;20030;-87
2022/04/11 01:42:39;;;;;;;5.30;1.97;;;2.50;99.90;;;;;;4967685;28;20122;-86
2022/04/11 01:45:14;;;;;;;4.77;2.43;;;2.40;99.90;;;;;;4955763;28;20027;-87
2022/04/11 01:47:46;;;;;;;4.10;1.93;;;2.40;99.90;;;;;;4968689;28;20024;-86
2022/04/11 01:50:15;;;;;;;4.35;1.88;;;2.40;99.90;;;;;;4963151;28;20023;-87
2022/04/11 02:16:25;;;;;;;3.53;1.57;;;2.40;99.90;;;;;;4954797;28;20452;-91
2022/04/11 02:28:05;;;;;;;4.73;1.87;;;2.50;99.90;;;;;;1365262;26;20086;-86
2022/04/11 02:30:31;;;;;;;4.57;2.00;;;2.40;99.90;;;;;;4974574;28;20098;-87
2022/04/11 02:32:57;;;;;;;4.43;2.00;;;2.50;99.90;;;;;;4977598;28;20023;-86
2022/04/11 02:35:45;;;;;;;4.93;2.00;;;2.40;99.90;;;;;;4971011;28;20082;-86
2022/04/11 02:38:23;;;;;;;4.70;2.07;;;2.30;99.90;;;;;;4990613;28;20121;-86
2022/04/11 02:41:12;;;;;;;3.17;1.90;;;2.30;99.90;;;;;;4977623;28;20066;-87
2022/04/11 02:43:46;;;;;;;5.07;1.87;;;2.30;99.90;;;;;;4973223;28;20026;-87
2022/04/11 02:46:21;;;;;;;6.00;2.50;;;2.30;99.90;;;;;;4961923;28;20539;-86
2022/04/11 02:48:56;;;;;;;4.03;1.90;;;2.30;99.90;;;;;;4980409;28;20077;-84
2022/04/11 02:51:25;;;;;;;4.40;2.33;;;2.30;99.90;;;;;;4969314;28;20031;-85
2022/04/11 02:54:12;;;;;;;6.27;2.17;;;2.30;99.90;;;;;;4980440;28;20481;-86
2022/04/11 02:57:03;;;;;;;4.07;2.07;;;2.20;99.90;;;;;;4978844;28;20032;-86
2022/04/11 02:59:39;;;;;;;3.50;1.73;;;2.30;99.90;;;;;;4975988;28;20070;-85
2022/04/11 03:02:16;;;;;;;4.50;1.97;;;2.30;99.90;;;;;;4981734;28;20043;-85
2022/04/11 03:08:48;;;;;;;3.45;1.45;;;2.30;99.90;;;;;;4889650;29;20024;-87
2022/04/11 03:12:03;;;;;;;;;;;;;;;;;;;;;
2022/04/11 03:18:43;;;;;;;4.73;2.27;;;2.30;99.90;;;;;;4788234;29;20031;-87
2022/04/11 03:21:20;;;;;;;4.77;1.90;;;2.30;99.90;;;;;;4795871;29;20035;-87
2022/04/11 03:23:52;;;;;;;5.57;2.10;;;2.30;99.90;;;;;;4832995;29;20159;-86
2022/04/11 03:26:21;;;;;;;3.08;1.55;;;2.40;99.90;;;;;;4964108;28;20039;-87
2022/04/11 03:29:32;;;;;;;5.10;2.27;;;2.30;99.90;;;;;;4977617;28;20023;-87
2022/04/11 03:32:28;;;;;;;5.27;2.10;;;2.40;99.90;;;;;;4976734;28;20026;-87
2022/04/11 03:35:07;;;;;;;3.60;1.93;;;2.40;99.90;;;;;;4977389;28;20030;-87
2022/04/11 03:37:38;;;;;;;4.93;1.67;;;2.50;99.90;;;;;;4970470;28;20134;-86
2022/04/11 03:40:25;;;;;;;4.30;1.88;;;2.50;99.90;;;;;;4979802;28;20034;-87
2022/04/11 03:43:02;;;;;;;4.43;1.60;;;2.50;99.90;;;;;;4966588;28;20031;-87
2022/04/11 03:49:06;;;;;;;3.20;1.77;;;2.50;99.90;;;;;;4973181;28;20035;-87
2022/04/11 03:51:56;;;;;;;5.87;2.20;;;2.40;99.90;;;;;;4976869;28;20027;-86
2022/04/11 03:57:09;;;;;;;;;;;;;;;;;;;;;
2022/04/11 03:59:42;;;;;;;5.63;2.10;;;2.70;99.90;;;;;;4970652;28;20043;-87
2022/04/11 04:02:15;;;;;;;6.43;1.73;;;2.50;99.90;;;;;;4965733;28;20028;-87
2022/04/11 04:04:43;;;;;;;;;;;2.50;99.90;;;;;;4955711;28;20015;-86
2022/04/11 04:07:26;;;;;;;7.13;2.33;;;2.40;99.90;;;;;;4954916;28;19928;-87
2022/04/11 04:15:05;;;;;;;6.33;2.10;;;2.50;99.90;;;;;;4212655;26;20236;-88
2022/04/11 04:21:09;;;;;;;4.73;1.97;;;2.50;99.90;;;;;;4922072;28;20042;-90
2022/04/11 04:24:01;;;;;;;3.33;1.50;;;2.50;99.90;;;;;;4948398;28;20055;-89
2022/04/11 04:27:20;;;;;;;;;;;;;;;;;;;;;
2022/04/11 04:33:31;;;;;;;;;;;;;;;;;;;;;
2022/04/11 04:36:22;;;;;;;5.03;1.80;;;2.50;99.90;;;;;;4938053;29;20043;-90
2022/04/11 04:38:56;;;;;;;4.17;1.93;;;2.40;99.90;;;;;;4942659;28;20035;-88
2022/04/11 04:41:29;;;;;;;4.87;2.13;;;2.50;99.90;;;;;;4939702;29;20039;-90
2022/04/11 04:44:11;;;;;;;6.23;1.87;;;2.30;99.90;;;;;;4945995;29;20039;-89
2022/04/11 04:46:43;;;;;;;5.20;2.33;;;2.50;99.90;;;;;;4936399;29;21428;-89
2022/04/11 04:49:50;;;;;;;2.57;1.20;;;2.50;99.90;;;;;;4934340;29;20032;-89
2022/04/11 04:55:49;;;;;;;4.60;1.90;;;2.50;99.90;;;;;;4920854;29;20043;-89
2022/04/11 04:58:22;;;;;;;4.53;1.90;;;2.50;99.90;;;;;;4898760;29;20517;-89
2022/04/11 05:01:08;;;;;;;4.67;1.93;;;2.50;99.90;;;;;;4940083;29;20042;-87
2022/04/11 05:03:50;;;;;;;6.40;1.97;;;2.60;99.90;;;;;;4947814;29;20126;-87
2022/04/11 05:06:18;;;;;;;4.03;2.05;;;2.60;99.90;;;;;;4949590;28;20062;-88
2022/04/11 05:09:05;;;;;;;4.97;2.30;;;2.30;99.90;;;;;;4941748;28;20028;-88
2022/04/11 05:11:40;;;;;;;4.30;2.03;;;2.50;99.90;;;;;;4950147;29;20062;-89
2022/04/11 05:15:13;;;;;;;;;;;;;;;;;;;;;
2022/04/11 05:18:09;;;;;;;4.83;2.37;;;2.40;99.90;;;;;;4947970;28;20405;-89
2022/04/11 05:20:41;;;;;;;4.50;1.87;;;2.40;99.90;;;;;;4943373;29;20027;-88
2022/04/11 05:23:06;;;;;;;4.10;2.03;;;2.40;99.90;;;;;;4954653;28;20063;-87
2022/04/11 05:25:32;;;;;;;4.43;2.10;;;2.40;99.90;;;;;;4953757;28;20062;-87
2022/04/11 05:28:07;;;;;;;5.67;2.33;;;2.50;99.90;;;;;;4955094;28;20026;-88
2022/04/11 05:31:05;;;;;;;6.47;2.03;;;2.30;99.90;;;;;;4949872;29;20024;-89
2022/04/11 05:33:46;;;;;;;5.13;2.50;;;2.40;99.90;;;;;;4952764;29;20082;-86
2022/04/11 05:36:35;;;;;;;5.20;2.27;;;2.40;99.90;;;;;;4951754;28;20027;-87
2022/04/11 05:43:29;;;;;;;5.27;2.10;;;2.60;99.90;;;;;;4937126;29;20087;-89
2022/04/11 05:47:13;;;;;;;;;;;;;;;;;;;;;
2022/04/11 06:12:22;;;;;;;3.92;1.98;;;4.00;99.90;;;;;;4909247;29;20184;-87
2022/04/11 06:16:11;;;;;;;;;;;;;;;;;;;;;
2022/04/11 06:32:09;;;;;;;4.80;1.90;;;4.50;99.90;;;;;;4971695;28;20043;-85
2022/04/11 06:37:55;;;;;;;6.13;2.08;;;4.70;99.90;;;;;;4932475;29;20040;-85
2022/04/11 06:40:26;;;;;;;4.77;2.00;;;4.80;99.90;;;;;;4959220;28;20020;-84
2022/04/11 06:43:10;;;;;;;8.53;2.13;;;5.00;99.90;;;;;;4943135;28;20046;-85
2022/04/11 06:45:44;;;;;;;4.53;2.10;;;5.10;99.90;;;;;;4962923;28;20019;-85
2022/04/11 06:48:41;;;;;;;;;;;;;;;;;;;;;
2022/04/11 07:16:49;;;;;;;;;;;;;;;;;;;;;
2022/04/11 07:19:19;;;;;;;4.60;1.70;;;6.40;99.90;;;;;;4921201;29;20032;-88
2022/04/11 07:21:48;;;;;;;3.33;1.67;;;6.60;99.90;;;;;;4922538;29;20052;-88
2022/04/11 07:24:18;;;;;;;3.77;1.87;;;6.70;99.90;;;;;;4936281;29;20122;-89
2022/04/11 07:27:26;;;;;;;4.20;1.77;;;7.10;99.90;;;;;;4949122;29;20036;-88
2022/04/11 07:45:28;;;;;;;2.90;1.63;;;7.80;99.90;;;;;;4953508;28;20109;-88
2022/04/11 07:48:06;;;;;;;;;;;;;;;;;;;;;
2022/04/11 07:50:39;;;;;;;2.90;1.40;;;8.00;99.90;;;;;;4935774;29;20020;-90
2022/04/11 07:53:13;;;;;;;2.83;1.33;;;8.10;99.90;;;;;;4934862;29;20048;-90
2022/04/11 07:55:38;;;;;;;3.20;1.37;;;8.50;99.90;;;;;;4935039;29;20027;-89
2022/04/11 08:00:52;;;;;;;;;;;;;;;;;;;;;
2022/04/11 08:03:51;;;;;;;;;;;;;;;;;;;;;
2022/04/11 08:06:17;;;;;;;3.70;1.30;;;8.80;99.90;;;;;;4986937;28;20034;-85
2022/04/11 08:08:46;;;;;;;5.70;2.05;;;9.00;99.90;;;;;;4983245;28;20450;-85
2022/04/11 08:11:16;;;;;;;3.10;1.20;;;9.00;99.90;;;;;;4987331;28;20022;-87
2022/04/11 08:13:42;;;;;;;2.78;1.17;;;9.10;99.90;;;;;;4978438;28;20030;-86
2022/04/11 08:16:22;;;;;;;;;;;;;;;;;;;;;
2022/04/11 08:18:58;;;;;;;3.35;1.35;;;9.20;99.90;;;;;;4977627;28;20110;-86
2022/04/11 08:21:24;;;;;;;3.85;1.35;;;9.30;99.90;;;;;;4976296;28;20031;-86
2022/04/11 08:24:01;;;;;;;2.95;1.17;;;9.60;99.90;;;;;;4978296;28;20049;-86
2022/04/11 08:26:51;;;;;;;3.08;1.27;;;9.70;99.90;;;;;;4976669;28;20031;-87
2022/04/11 08:29:51;;;;;;;;;;;;;;;;;;;;;
2022/04/11 08:33:10;;;;;;;2.55;1.00;;;9.90;99.90;;;;;;4979728;28;20102;-85
2022/04/11 08:36:07;;;;;;;3.22;1.40;;;10.10;99.90;;;;;;4970691;28;20093;-86
2022/04/11 08:38:44;;;;;;;2.58;1.20;;;10.20;99.90;;;;;;4984266;28;20031;-87
2022/04/11 08:42:18;;;;;;;;;;;;;;;;;;;;;
2022/04/11 08:51:49;;;;;;;1.88;0.70;;;10.70;99.90;;;;;;4939670;29;20036;-87
2022/04/11 08:54:36;;;;;;;3.03;0.98;;;11.00;99.90;;;;;;4896234;29;20083;-87
2022/04/11 08:57:34;;;;;;;2.58;1.02;;;11.20;99.90;;;;;;4947987;29;20035;-87
2022/04/11 09:00:28;;;;;;;2.85;1.23;;;11.20;99.90;;;;;;4963781;28;20047;-88
2022/04/11 09:02:59;;;;;;;2.38;0.90;;;11.40;99.90;;;;;;4962988;28;20608;-87
2022/04/11 09:05:56;;;;;;;;;;;;;;;;;;;;;
2022/04/11 09:09:13;;;;;;;2.95;1.15;;;11.60;98.40;;;;;;4966335;28;20825;-87
2022/04/11 09:12:03;;;;;;;;;;;;;;;;;;;;;
2022/04/11 09:15:28;;;;;;;;;;;;;;;;;;;;;
2022/04/11 09:25:45;;;;;;;1.98;0.70;;;12.60;94.90;;;;;;4893088;29;20052;-87
2022/04/11 09:28:58;;;;;;;1.60;0.80;;;12.30;93.30;;;;;;4824173;29;20033;-87
2022/04/11 09:31:45;;;;;;;2.42;0.50;;;12.50;94.10;;;;;;4892488;29;20041;-88
2022/04/11 09:34:58;;;;;;;3.70;0.70;;;12.70;91.80;;;;;;4921133;29;20068;-87
2022/04/11 09:37:34;;;;;;;2.40;0.65;;;12.70;92.30;;;;;;4917678;29;20043;-87
2022/04/11 09:41:06;;;;;;;;;;;;;;;;;;;;;
2022/04/11 09:44:33;;;;;;;4.22;0.85;;;13.00;92.70;;;;;;4989110;28;20521;-87
2022/04/11 09:47:38;;;;;;;;;;;;;;;;;;;;;
2022/04/11 09:54:20;;;;;;;1.95;1.00;;;13.30;91.40;;;;;;4892864;29;20036;-88
2022/04/11 09:57:28;;;;;;;1.83;0.63;;;13.40;91.90;;;;;;4894295;28;20031;-90
2022/04/11 10:00:38;;;;;;;3.67;0.90;;;13.50;90.90;;;;;;4913228;29;20047;-88
2022/04/11 10:04:30;;;;;;;;;;;;;;;;;;;;;
2022/04/11 10:10:03;;;;;;;2.10;0.60;;;13.70;87.80;;;;;;4920706;29;20126;-87
2022/04/11 10:16:09;;;;;;;2.85;1.02;;;14.10;85.00;;;;;;4916493;29;20414;-87
2022/04/11 10:19:07;;;;;;;1.90;0.80;;;13.90;85.70;;;;;;4933163;28;20035;-87
2022/04/11 10:22:08;;;;;;;2.35;0.60;;;14.00;84.10;;;;;;4942106;28;20032;-86
2022/04/11 10:29:13;;;;;;;2.25;0.40;;;14.20;83.00;;;;;;4918668;29;20557;-88
2022/04/11 10:36:15;;;;;;;;;;;;;;;;;;;;;
2022/04/11 10:54:54;;;;;;;1.85;0.60;;;15.20;80.30;;;;;;1399316;26;20054;-88
2022/04/11 11:10:58;;;;;;;1.45;0.57;;;16.10;78.20;;;;;;1358723;26;20047;-91
2022/04/11 11:13:59;;;;;;;2.15;0.70;;;16.00;74.70;;;;;;4954830;29;20517;-90
2022/04/11 11:16:42;;;;;;;1.23;0.57;;;16.00;77.20;;;;;;4954068;28;20110;-90
2022/04/11 11:19:50;;;;;;;2.70;0.45;;;15.90;76.80;;;;;;4951073;28;20091;-90
2022/04/11 11:38:11;;;;;;;1.42;0.50;;;16.70;73.90;;;;;;4963333;28;20118;-88
2022/04/11 11:41:05;;;;;;;1.85;0.70;;;16.60;74.30;;;;;;4964913;28;20066;-88
2022/04/11 11:43:36;;;;;;;2.45;0.55;;;16.80;72.30;;;;;;4964838;28;20062;-89
2022/04/11 11:51:47;;;;;;;2.05;0.63;;;16.90;71.90;;;;;;4934707;28;20047;-87
2022/04/11 11:54:35;;;;;;;1.17;0.50;;;16.90;70.00;;;;;;4924598;29;20027;-87
2022/04/11 11:57:20;;;;;;;1.88;0.60;;;16.90;71.50;;;;;;4944456;28;20086;-88
2022/04/11 11:59:47;;;;;;;1.08;0.50;;;17.00;69.80;;;;;;4946548;28;20028;-87
2022/04/11 12:05:03;;;;;;;1.50;0.63;;;17.20;68.90;;;;;;4893897;29;20086;-87
2022/04/11 12:07:29;;;;;;;2.88;0.70;;;17.40;68.50;;;;;;4956552;28;20027;-89
2022/04/11 12:10:06;;;;;;;2.15;0.63;;;17.30;67.10;;;;;;4938536;29;20394;-88
2022/04/11 12:12:37;;;;;;;2.25;0.82;;;17.20;66.90;;;;;;4926905;29;20023;-88
2022/04/11 12:15:06;;;;;;;1.40;0.70;;;17.10;67.80;;;;;;4924976;29;20020;-88
2022/04/11 12:17:44;;;;;;;1.42;0.65;;;17.20;66.60;;;;;;4927229;29;20074;-88
2022/04/11 12:20:19;;;;;;;2.97;0.88;;;17.30;68.00;;;;;;4937817;28;20537;-89
2022/04/11 12:23:03;;;;;;;1.30;0.50;;;17.30;67.70;;;;;;4933816;29;20031;-88
2022/04/11 12:25:33;;;;;;;1.45;0.50;;;17.50;67.00;;;;;;4926897;29;20054;-88
2022/04/11 12:28:19;;;;;;;1.63;0.70;;;17.70;65.90;;;;;;4934843;29;20118;-87
2022/04/11 12:30:48;;;;;;;1.80;0.70;;;17.50;64.70;;;;;;4919483;29;20024;-88
2022/04/11 12:33:33;;;;;;;1.10;0.50;;;17.80;64.00;;;;;;4933529;29;20454;-88
2022/04/11 12:36:09;;;;;;;1.80;1.00;;;17.80;65.10;;;;;;4940854;28;20510;-90
2022/04/11 12:39:25;;;;;;;2.63;1.13;;;17.70;62.90;;;;;;4933619;29;20051;-88
2022/04/11 12:41:53;;;;;;;2.28;0.75;;;18.10;66.00;;;;;;4950408;28;20043;-88
2022/04/11 12:44:20;;;;;;;1.58;0.52;;;18.30;65.20;;;;;;4947662;28;20042;-88
2022/04/11 12:47:06;;;;;;;1.70;0.60;;;18.40;64.50;;;;;;4928872;29;20024;-89
2022/04/11 12:49:57;;;;;;;3.25;0.90;;;18.70;63.80;;;;;;4960044;28;20099;-89
2022/04/11 12:52:25;;;;;;;2.50;0.95;;;18.90;62.50;;;;;;4936752;28;20019;-89
2022/04/11 12:55:14;;;;;;;1.58;0.60;;;18.10;60.40;;;;;;4937828;28;20515;-89
2022/04/11 12:57:58;;;;;;;1.40;0.65;;;18.30;63.00;;;;;;4904719;28;20046;-89
2022/04/11 13:00:40;;;;;;;2.20;0.60;;;18.10;62.10;;;;;;4933612;28;20027;-90
2022/04/11 13:03:27;;;;;;;;;;;;;;;;;;;;;
2022/04/11 13:06:23;;;;;;;;;;;;;;;;;;;;;
2022/04/11 13:09:12;;;;;;;3.55;0.90;;;18.20;62.90;;;;;;4934860;28;20035;-90
2022/04/11 13:11:45;;;;;;;1.00;0.57;;;18.30;62.10;;;;;;4932055;29;20125;-89
2022/04/11 13:14:23;;;;;;;;;;;;;;;;;;;;;
2022/04/11 13:19:43;;;;;;;1.52;0.65;;;19.10;63.10;;;;;;4935267;28;20096;-89
2022/04/11 13:22:08;;;;;;;2.85;1.00;;;19.40;62.20;;;;;;4919320;29;20028;-89
2022/04/11 13:24:34;;;;;;;2.20;0.85;;;19.30;62.70;;;;;;4939141;29;20409;-89
2022/04/11 13:27:02;;;;;;;3.75;1.00;;;19.70;63.10;;;;;;4959574;28;20075;-89
2022/04/11 13:29:31;;;;;;;2.55;0.95;;;20.00;61.50;;;;;;4954205;28;20031;-89
2022/04/11 13:32:03;;;;;;;2.20;0.90;;;19.80;61.90;;;;;;4930010;29;20055;-89
2022/04/11 13:34:36;;;;;;;2.13;0.73;;;19.80;60.10;;;;;;4941940;29;20024;-90
2022/04/11 13:37:04;;;;;;;2.65;0.80;;;20.10;60.80;;;;;;4943813;29;20030;-89
2022/04/11 13:39:30;;;;;;;2.45;0.80;;;20.30;60.50;;;;;;4935021;29;20039;-88
2022/04/11 13:41:59;;;;;;;2.90;1.00;;;20.50;62.50;;;;;;4940026;29;20111;-88
2022/04/11 13:44:30;;;;;;;1.95;0.90;;;20.40;60.10;;;;;;4936781;28;20060;-89
2022/04/11 13:46:56;;;;;;;1.45;0.77;;;20.50;60.10;;;;;;4960336;28;20062;-88
2022/04/11 13:49:22;;;;;;;4.22;1.17;;;20.80;59.60;;;;;;4937492;28;20055;-89
2022/04/11 13:51:51;;;;;;;2.38;0.90;;;20.60;58.40;;;;;;4939111;29;20055;-90
2022/04/11 13:54:28;;;;;;;1.83;0.80;;;20.80;58.90;;;;;;4955973;28;20027;-90
2022/04/11 13:56:54;;;;;;;2.08;0.90;;;20.90;59.00;;;;;;4940010;29;20024;-90
2022/04/11 13:59:25;;;;;;;2.80;1.00;;;20.90;58.10;;;;;;4938628;28;20046;-91
2022/04/11 14:01:59;;;;;;;2.40;0.95;;;21.10;57.60;;;;;;4924342;29;20028;-91
2022/04/11 14:04:25;;;;;;;2.25;0.77;;;20.80;58.00;;;;;;4945485;29;20510;-89
2022/04/11 14:07:07;;;;;;;2.05;0.73;;;21.10;58.00;;;;;;4930596;29;20032;-92
2022/04/11 14:09:33;;;;;;;2.40;0.85;;;21.20;57.00;;;;;;4937958;29;20023;-90
2022/04/11 14:12:14;;;;;;;2.60;0.85;;;21.10;56.90;;;;;;4940873;28;20553;-92
2022/04/11 14:14:46;;;;;;;1.83;0.70;;;21.00;55.00;;;;;;4936507;29;20035;-91
2022/04/11 14:17:15;;;;;;;1.77;0.90;;;20.80;55.90;;;;;;4935324;29;20024;-89
2022/04/11 14:19:44;;;;;;;2.65;0.80;;;20.90;56.70;;;;;;4919510;29;20076;-90
2022/04/11 14:22:10;;;;;;;3.15;1.10;;;21.10;57.90;;;;;;4934097;28;20835;-89
2022/04/11 14:24:35;;;;;;;2.83;1.00;;;20.70;56.00;;;;;;4935825;29;20072;-90
2022/04/11 14:27:04;;;;;;;1.98;0.90;;;20.20;56.10;;;;;;4938396;29;20499;-90
2022/04/11 14:29:35;;;;;;;2.47;0.90;;;20.40;56.10;;;;;;4916269;29;20118;-90
2022/04/11 14:32:02;;;;;;;;;;;20.70;57.00;;;;;;4938434;28;20099;-89
2022/04/11 14:34:33;;;;;;;2.22;1.00;;;21.10;57.70;;;;;;4915530;29;19934;-88
2022/04/11 14:37:01;;;;;;;2.28;1.10;;;21.10;56.70;;;;;;4918180;29;20410;-89
2022/04/11 14:39:48;;;;;;;2.95;1.02;;;21.30;57.30;;;;;;4921304;29;20054;-89
2022/04/11 14:42:16;;;;;;;2.42;1.10;;;21.70;56.50;;;;;;4953756;29;20065;-89
2022/04/11 14:44:45;;;;;;;2.92;1.20;;;21.90;57.00;;;;;;4961260;28;20039;-88
2022/04/11 14:47:14;;;;;;;3.50;1.00;;;22.00;54.10;;;;;;4938758;29;20103;-87
2022/04/11 14:49:42;;;;;;;2.78;0.77;;;21.60;56.90;;;;;;4960872;29;20043;-87
2022/04/11 14:52:13;;;;;;;2.25;1.08;;;21.50;56.20;;;;;;4946509;29;20031;-88
2022/04/11 14:54:39;;;;;;;2.45;0.98;;;21.70;55.70;;;;;;4944334;28;20027;-88
2022/04/11 14:57:22;;;;;;;2.13;0.80;;;21.70;56.90;;;;;;4947035;29;20036;-90
2022/04/11 14:59:50;;;;;;;2.17;1.00;;;21.70;56.00;;;;;;4949185;28;20028;-90
2022/04/11 15:02:18;;;;;;;3.33;1.00;;;21.80;55.60;;;;;;4923886;29;20027;-89
2022/04/11 15:04:49;;;;;;;2.53;1.13;;;21.60;55.30;;;;;;4939294;28;20059;-89
2022/04/11 15:07:15;;;;;;;3.25;1.15;;;21.60;56.40;;;;;;4938654;28;20020;-89
2022/04/11 15:09:44;;;;;;;2.90;1.10;;;21.60;56.00;;;;;;4934553;29;20034;-90
2022/04/11 15:12:10;;;;;;;2.55;1.20;;;21.50;55.80;;;;;;4940190;29;20027;-89
2022/04/11 15:14:36;;;;;;;2.97;1.10;;;21.70;55.70;;;;;;4916537;29;20040;-89
2022/04/11 15:17:06;;;;;;;3.05;1.10;;;21.40;55.40;;;;;;4943911;28;20174;-89
2022/04/11 15:19:37;;;;;;;1.33;0.70;;;21.40;56.40;;;;;;4936775;28;20028;-88
2022/04/11 15:22:03;;;;;;;;;;;21.40;57.00;;;;;;4933645;29;20478;-88
2022/04/11 15:24:41;;;;;;;2.97;1.23;;;21.40;55.30;;;;;;4945150;28;19914;-90
2022/04/11 15:27:07;;;;;;;1.98;0.90;;;21.10;55.50;;;;;;4925297;29;20393;-88
2022/04/11 15:29:36;;;;;;;2.63;1.13;;;21.00;55.40;;;;;;4936150;28;20075;-87
2022/04/11 15:32:03;;;;;;;3.03;0.90;;;20.90;55.30;;;;;;4949323;28;20092;-89
2022/04/11 15:34:36;;;;;;;2.03;0.80;;;21.00;57.50;;;;;;4948716;29;20026;-89
2022/04/11 15:37:01;;;;;;;2.30;0.90;;;21.00;57.10;;;;;;4947326;29;20032;-89
2022/04/11 15:39:27;;;;;;;2.88;1.20;;;21.10;57.30;;;;;;4950248;28;20031;-89
2022/04/11 15:42:04;;;;;;;3.47;1.05;;;21.10;56.00;;;;;;4952815;28;20056;-89
2022/04/11 15:44:33;;;;;;;3.67;1.00;;;21.20;56.20;;;;;;4939355;28;20039;-89
2022/04/11 15:46:59;;;;;;;3.53;1.20;;;21.20;55.50;;;;;;4932495;29;20017;-89
2022/04/11 15:49:24;;;;;;;2.40;0.80;;;21.30;56.00;;;;;;4950951;28;20061;-89
2022/04/11 15:51:53;;;;;;;2.72;1.30;;;21.30;54.90;;;;;;4938016;29;20063;-90
2022/04/11 15:54:28;;;;;;;;;;;;;;;;;;;;;
2022/04/11 15:56:54;;;;;;;2.50;1.10;;;20.70;55.80;;;;;;4935214;28;20031;-89
2022/04/11 15:59:20;;;;;;;1.67;0.88;;;20.30;55.80;;;;;;4925923;29;20137;-90
2022/04/11 16:01:46;;;;;;;3.95;1.15;;;19.90;56.00;;;;;;4937256;28;20472;-88
2022/04/11 16:04:17;;;;;;;2.45;0.93;;;19.40;56.60;;;;;;4926059;29;20058;-89
2022/04/11 16:06:43;;;;;;;3.33;1.02;;;19.00;58.30;;;;;;4948006;28;20052;-88
2022/04/11 16:09:10;;;;;;;2.72;0.80;;;18.60;59.00;;;;;;4938455;28;20062;-88
2022/04/11 16:11:36;;;;;;;3.38;1.30;;;18.30;60.40;;;;;;4916205;29;20027;-88
2022/04/11 16:14:02;;;;;;;3.85;1.15;;;18.20;60.10;;;;;;4939812;28;20036;-88
2022/04/11 16:16:31;;;;;;;3.53;1.00;;;17.80;60.70;;;;;;4923331;29;20159;-89
2022/04/11 16:19:05;;;;;;;1.35;0.63;;;17.60;61.20;;;;;;4921396;29;20028;-89
2022/04/11 16:21:33;;;;;;;1.80;0.70;;;17.30;62.60;;;;;;4934744;29;20042;-88
2022/04/11 16:23:59;;;;;;;2.15;0.93;;;17.20;62.90;;;;;;4933718;28;20506;-89
2022/04/11 16:26:24;;;;;;;1.98;1.02;;;17.20;62.60;;;;;;4932113;29;20043;-88
2022/04/11 16:28:52;;;;;;;2.53;0.85;;;16.80;62.30;;;;;;4935164;28;20035;-89
2022/04/11 16:31:28;;;;;;;2.10;0.90;;;16.70;63.70;;;;;;4955131;28;20390;-90
2022/04/11 16:33:59;;;;;;;2.70;1.13;;;16.60;64.20;;;;;;4937176;29;20082;-88
2022/04/11 16:36:27;;;;;;;2.40;0.80;;;16.50;64.50;;;;;;4945075;29;20363;-90
2022/04/11 16:38:54;;;;;;;2.08;1.15;;;16.70;65.00;;;;;;4940411;28;20118;-89
2022/04/11 16:41:22;;;;;;;2.47;0.80;;;16.60;65.70;;;;;;4940018;29;20024;-89
2022/04/11 16:43:50;;;;;;;1.65;0.70;;;16.30;65.80;;;;;;4946629;28;20040;-89
2022/04/11 16:46:16;;;;;;;2.30;0.88;;;16.30;65.90;;;;;;4953429;29;20125;-89
2022/04/11 16:48:44;;;;;;;2.03;0.90;;;16.30;65.20;;;;;;4951818;29;20023;-89
2022/04/11 16:51:10;;;;;;;1.95;1.00;;;16.10;65.70;;;;;;4950458;28;20034;-89
2022/04/11 16:53:39;;;;;;;2.55;0.80;;;16.20;66.60;;;;;;4938744;28;20119;-89
2022/04/11 16:56:12;;;;;;;2.50;0.60;;;16.00;65.80;;;;;;4936294;29;20039;-88
2022/04/11 16:58:40;;;;;;;3.10;1.30;;;15.80;66.50;;;;;;4954091;29;20027;-87
2022/04/11 17:01:09;;;;;;;2.47;0.98;;;16.10;66.40;;;;;;4949311;28;20193;-88
2022/04/11 17:03:38;;;;;;;1.98;0.80;;;15.70;66.80;;;;;;4922106;29;20099;-89
2022/04/11 17:06:08;;;;;;;2.65;0.88;;;15.50;67.30;;;;;;4920265;29;20024;-89
2022/04/11 17:08:41;;;;;;;2.28;0.85;;;15.60;67.90;;;;;;4923537;29;20386;-87
2022/04/11 17:11:08;;;;;;;2.30;0.80;;;15.40;67.50;;;;;;4939363;28;20024;-87
2022/04/11 17:13:37;;;;;;;4.95;1.08;;;15.30;68.00;;;;;;4945484;28;20047;-88
2022/04/11 17:18:47;;;;;;;1.52;0.70;;;15.10;68.00;;;;;;4937925;29;20063;-88
2022/04/11 17:21:16;;;;;;;2.53;0.85;;;15.10;69.70;;;;;;4942487;29;20028;-88
2022/04/11 17:23:50;;;;;;;2.47;0.73;;;14.90;69.20;;;;;;4941773;29;20024;-87
2022/04/11 17:26:16;;;;;;;2.10;0.75;;;14.80;69.40;;;;;;4941923;28;20354;-88
2022/04/11 17:28:42;;;;;;;2.67;0.93;;;14.70;70.10;;;;;;4938375;28;20023;-89
2022/04/11 17:31:07;;;;;;;1.98;0.90;;;14.60;69.70;;;;;;4934010;29;20031;-88
2022/04/11 17:33:35;;;;;;;1.77;0.65;;;14.60;70.20;;;;;;4930336;29;20115;-87
2022/04/11 17:36:04;;;;;;;2.30;0.80;;;14.60;70.70;;;;;;4922015;29;20039;-88
2022/04/11 17:38:34;;;;;;;2.25;0.82;;;14.30;71.50;;;;;;4935953;28;20064;-88
2022/04/11 17:41:02;;;;;;;4.07;1.13;;;14.30;71.60;;;;;;4936732;28;20040;-88
2022/04/11 17:43:28;;;;;;;1.48;0.70;;;14.40;71.80;;;;;;4935398;28;20653;-88
2022/04/11 17:46:00;;;;;;;2.67;0.85;;;14.00;72.10;;;;;;4944942;28;20047;-88
2022/04/11 17:48:29;;;;;;;2.28;0.80;;;13.90;73.10;;;;;;4943825;28;20027;-87
2022/04/11 20:13:22;;;;;;;4.15;1.80;;;10.60;89.00;;;;;;4947921;28;20058;-86
2022/04/11 20:16:01;;;;;;;4.80;2.00;;;10.60;89.30;;;;;;4949312;28;20512;-87
2022/04/11 20:19:02;;;;;;;4.75;1.77;;;10.50;90.10;;;;;;4955620;28;20035;-86
2022/04/11 20:21:32;;;;;;;4.43;1.77;;;10.60;90.10;;;;;;4953723;28;20027;-86
2022/04/11 20:24:10;;;;;;;5.30;1.77;;;10.40;90.40;;;;;;4961141;28;20035;-87
2022/04/11 20:29:50;;;;;;;7.68;2.15;;;10.40;91.10;;;;;;4938709;29;20024;-86
2022/04/11 20:32:37;;;;;;;7.28;2.10;;;10.50;91.20;;;;;;4936163;29;20090;-86
2022/04/11 20:35:06;;;;;;;5.18;2.17;;;10.30;91.60;;;;;;4960431;28;20035;-87
2022/04/11 20:37:41;;;;;;;3.90;1.90;;;10.20;91.90;;;;;;4954230;28;20505;-87
2022/04/11 20:40:40;;;;;;;;;;;;;;;;;;;;;
2022/04/11 20:43:24;;;;;;;5.80;2.42;;;10.20;92.30;;;;;;4934706;29;20130;-86
2022/04/11 20:45:55;;;;;;;7.82;2.17;;;10.20;92.70;;;;;;4954894;28;20118;-87
2022/04/11 20:48:42;;;;;;;5.60;2.25;;;10.20;93.20;;;;;;4938213;29;20087;-86